Time,TemperatureF,DewpointF,PressureIn,WindDirection,WindDirectionDegrees,WindSpeedMPH,WindSpeedGustMPH,Humidity,HourlyPrecipIn,Conditions,Clouds,dailyrainin,SoftwareType,DateUTC
2013-06-24 00:15:00,68.5,67.0,29.88,West,270,0.0,-999.0,95,-99.99,,,0.00,Acu-Link.com,2013-06-24 04:15:00,
2013-06-24 00:30:00,68.2,67.0,29.88,ESE,112,0.0,-999.0,96,-99.99,,,0.00,Acu-Link.com,2013-06-24 04:30:00,
2013-06-24 00:45:00,67.8,66.9,29.88,NE,45,0.0,-999.0,97,-99.99,,,0.00,Acu-Link.com,2013-06-24 04:45:00,
2013-06-24 01:27:00,66.2,65.6,29.87,SSE,157,0.0,-999.0,98,-99.99,,,0.00,Acu-Link.com,2013-06-24 05:27:00,
2013-06-24 01:49:00,65.8,65.5,29.87,SSE,157,0.0,-999.0,99,-99.99,,,0.00,Acu-Link.com,2013-06-24 05:49:00,
2013-06-24 02:13:00,65.8,65.5,29.86,WSW,247,0.0,-999.0,99,-99.99,,,0.00,Acu-Link.com,2013-06-24 06:13:00,
2013-06-24 02:30:00,65.1,64.8,29.86,East,90,0.0,-999.0,99,-99.99,,,0.00,Acu-Link.com,2013-06-24 06:30:00,
2013-06-24 03:02:00,64.6,64.3,29.85,West,270,0.0,-999.0,99,-99.99,,,0.00,Acu-Link.com,2013-06-24 07:02:00,
2013-06-24 03:17:00,64.6,64.3,29.86,East,90,0.0,-999.0,99,-99.99,,,0.00,Acu-Link.com,2013-06-24 07:17:00,
2013-06-24 03:32:00,64.8,64.5,29.86,WSW,247,1.1,-999.0,99,-99.99,,,0.00,Acu-Link.com,2013-06-24 07:32:00,
2013-06-24 03:47:00,64.2,63.9,29.86,SW,225,0.0,-999.0,99,-99.99,,,0.00,Acu-Link.com,2013-06-24 07:47:00,
2013-06-24 04:20:00,63.7,63.4,29.86,North,0,0.0,-999.0,99,-99.99,,,0.00,Acu-Link.com,2013-06-24 08:20:00,
2013-06-24 04:38:00,63.7,63.4,29.86,SE,135,1.7,-999.0,99,-99.99,,,0.00,Acu-Link.com,2013-06-24 08:38:00,
2013-06-24 04:53:00,63.3,63.0,29.86,SW,225,0.0,-999.0,99,-99.99,,,0.00,Acu-Link.com,2013-06-24 08:53:00,
2013-06-24 05:08:00,63.7,63.4,29.86,West,270,0.0,-999.0,99,-99.99,,,0.00,Acu-Link.com,2013-06-24 09:08:00,
2013-06-24 05:40:00,63.7,63.4,29.86,SSW,202,0.0,-999.0,99,-99.99,,,0.00,Acu-Link.com,2013-06-24 09:40:00,
2013-06-24 05:55:00,63.3,63.0,29.87,ESE,112,0.0,-999.0,99,-99.99,,,0.00,Acu-Link.com,2013-06-24 09:55:00,
2013-06-24 06:10:00,63.1,62.8,29.87,South,180,0.0,-999.0,99,-99.99,,,0.00,Acu-Link.com,2013-06-24 10:10:00,
2013-06-24 06:25:00,63.7,63.4,29.87,SW,225,0.0,-999.0,99,-99.99,,,0.00,Acu-Link.com,2013-06-24 10:25:00,
2013-06-24 06:40:00,64.2,63.9,29.88,SSE,157,0.0,-999.0,99,-99.99,,,0.00,Acu-Link.com,2013-06-24 10:40:00,
2013-06-24 06:55:00,66.0,65.7,29.88,West,270,0.0,-999.0,99,-99.99,,,0.00,Acu-Link.com,2013-06-24 10:55:00,
2013-06-24 07:11:00,68.0,67.1,29.89,West,270,0.0,-999.0,97,-99.99,,,0.00,Acu-Link.com,2013-06-24 11:11:00,
2013-06-24 07:26:00,70.2,67.8,29.89,West,270,1.7,-999.0,92,-99.99,,,0.00,Acu-Link.com,2013-06-24 11:26:00,
2013-06-24 07:41:00,71.4,68.0,29.89,West,270,0.0,-999.0,89,-99.99,,,0.00,Acu-Link.com,2013-06-24 11:41:00,
2013-06-24 07:56:00,72.7,68.6,29.89,SW,225,0.0,-999.0,87,-99.99,,,0.00,Acu-Link.com,2013-06-24 11:56:00,
2013-06-24 08:11:00,76.3,70.4,29.89,WSW,247,0.0,-999.0,82,-99.99,,,0.00,Acu-Link.com,2013-06-24 12:11:00,
2013-06-24 09:06:00,77.7,69.9,29.90,SW,225,1.7,-999.0,77,-99.99,,,0.00,Acu-Link.com,2013-06-24 13:06:00,
2013-06-24 09:25:00,85.5,71.9,29.90,WSW,247,0.0,-999.0,64,-99.99,,,0.00,Acu-Link.com,2013-06-24 13:25:00,
2013-06-24 09:44:00,87.1,72.0,29.90,WSW,247,1.7,-999.0,61,-99.99,,,0.00,Acu-Link.com,2013-06-24 13:44:00,
2013-06-24 10:02:00,82.0,71.2,29.90,West,270,2.2,-999.0,70,-99.99,,,0.00,Acu-Link.com,2013-06-24 14:02:00,
2013-06-24 10:33:00,82.4,71.2,29.90,West,270,1.7,-999.0,69,-99.99,,,0.00,Acu-Link.com,2013-06-24 14:33:00,
2013-06-24 10:49:00,83.8,72.1,29.90,SW,225,3.7,-999.0,68,-99.99,,,0.00,Acu-Link.com,2013-06-24 14:49:00,
2013-06-24 11:21:00,83.3,71.2,29.89,West,270,6.8,-999.0,67,-99.99,,,0.00,Acu-Link.com,2013-06-24 15:21:00,
2013-06-24 11:36:00,85.5,72.4,29.88,West,270,2.2,-999.0,65,-99.99,,,0.00,Acu-Link.com,2013-06-24 15:36:00,
2013-06-24 12:08:00,84.7,71.6,29.87,SW,225,3.7,-999.0,65,-99.99,,,0.00,Acu-Link.com,2013-06-24 16:08:00,
2013-06-24 12:41:00,87.6,72.0,29.87,SW,225,2.7,-999.0,60,-99.99,,,0.00,Acu-Link.com,2013-06-24 16:41:00,
2013-06-24 12:57:00,83.7,68.3,29.85,SSW,202,1.7,-999.0,60,-99.99,,,0.00,Acu-Link.com,2013-06-24 16:57:00,
2013-06-24 13:21:00,83.3,69.4,29.85,SSW,202,3.2,-999.0,63,-99.99,,,0.00,Acu-Link.com,2013-06-24 17:21:00,
2013-06-24 13:40:00,79.3,67.8,29.87,West,270,6.3,-999.0,68,-99.99,,,0.00,Acu-Link.com,2013-06-24 17:40:00,
2013-06-24 14:01:00,77.5,67.7,29.86,West,270,3.2,-999.0,72,-99.99,,,0.00,Acu-Link.com,2013-06-24 18:01:00,
2013-06-24 16:29:00,86.4,69.3,29.80,SW,225,3.7,-999.0,57,-99.99,,,0.00,Acu-Link.com,2013-06-24 20:29:00,
2013-06-24 16:50:00,84.2,69.3,29.81,South,180,3.2,-999.0,61,-99.99,,,0.00,Acu-Link.com,2013-06-24 20:50:00,
2013-06-24 17:05:00,79.3,69.1,29.81,West,270,4.7,-999.0,71,-99.99,,,0.00,Acu-Link.com,2013-06-24 21:05:00,
2013-06-24 17:20:00,78.4,69.4,29.82,SW,225,2.2,-999.0,74,-99.99,,,0.00,Acu-Link.com,2013-06-24 21:20:00,
2013-06-24 17:36:00,78.4,68.2,29.81,WSW,247,2.2,-999.0,71,-99.99,,,0.00,Acu-Link.com,2013-06-24 21:36:00,
2013-06-24 17:51:00,79.5,68.8,29.81,SW,225,2.2,-999.0,70,-99.99,,,0.00,Acu-Link.com,2013-06-24 21:51:00,
2013-06-24 18:21:00,78.4,69.0,29.80,West,270,0.0,-999.0,73,-99.99,,,0.00,Acu-Link.com,2013-06-24 22:21:00,
2013-06-24 18:52:00,78.3,68.9,29.79,SE,135,0.0,-999.0,73,-99.99,,,0.00,Acu-Link.com,2013-06-24 22:52:00,
2013-06-24 19:07:00,78.8,69.8,29.79,SE,135,0.0,-999.0,74,-99.99,,,0.00,Acu-Link.com,2013-06-24 23:07:00,
2013-06-24 19:22:00,79.2,70.2,29.80,WSW,247,1.7,-999.0,74,-99.99,,,0.00,Acu-Link.com,2013-06-24 23:22:00,
2013-06-24 19:38:00,79.5,69.7,29.80,WSW,247,0.0,-999.0,72,-99.99,,,0.00,Acu-Link.com,2013-06-24 23:38:00,
2013-06-24 19:53:00,78.8,69.4,29.80,WNW,292,1.1,-999.0,73,-99.99,,,0.00,Acu-Link.com,2013-06-24 23:53:00,
2013-06-24 20:08:00,77.7,68.7,29.80,SW,225,0.0,-999.0,74,-99.99,,,0.00,Acu-Link.com,2013-06-25 00:08:00,
2013-06-24 20:24:00,76.5,68.7,29.80,SW,225,1.7,-999.0,77,-99.99,,,0.00,Acu-Link.com,2013-06-25 00:24:00,
2013-06-24 20:39:00,75.7,68.7,29.80,SSW,202,0.0,-999.0,79,-99.99,,,0.00,Acu-Link.com,2013-06-25 00:39:00,
2013-06-24 20:54:00,75.0,69.5,29.81,SSE,157,0.0,-999.0,83,-99.99,,,0.00,Acu-Link.com,2013-06-25 00:54:00,
2013-06-24 21:09:00,73.9,68.8,29.82,NNW,337,3.2,-999.0,84,-99.99,,,0.00,Acu-Link.com,2013-06-25 01:09:00,
2013-06-24 21:24:00,73.4,68.9,29.81,WSW,247,0.0,-999.0,86,-99.99,,,0.00,Acu-Link.com,2013-06-25 01:24:00,
2013-06-24 21:39:00,72.7,69.3,29.81,NE,45,0.0,-999.0,89,-99.99,,,0.00,Acu-Link.com,2013-06-25 01:39:00,
2013-06-24 22:09:00,71.8,69.0,29.83,WSW,247,0.0,-999.0,91,-99.99,,,0.00,Acu-Link.com,2013-06-25 02:09:00,